Time;durP1;ratioP1;P1;durP2;ratioP2;P2;SDS_P1;SDS_P2;PMS_P1;PMS_P2;Temp;Humidity;BMP_temperature;BMP_pressure;BME280_temperature;BME280_humidity;BME280_pressure;Samples;Min_cycle;Max_cycle;Signal;HPM_P1;HPM_P2
2023/09/21 00:04:53;;;;;;;3.17;1.43;;;;;;;-147.65;100.00;57646.63;10426003;28;20037;-79
2023/09/21 00:09:54;;;;;;;4.28;2.00;;;;;;;-147.65;100.00;57646.63;10448346;28;20485;-78
2023/09/21 00:14:55;;;;;;;4.72;1.88;;;;;;;-147.65;100.00;57646.63;10426769;28;20077;-78
2023/09/21 00:19:55;;;;;;;5.30;2.42;;;;;;;-147.65;100.00;57646.63;10434925;28;20051;-79
2023/09/21 00:24:56;;;;;;;3.90;1.85;;;;;;;-147.65;100.00;57646.63;10427529;28;20041;-79
2023/09/21 00:29:56;;;;;;;4.10;1.52;;;;;;;-147.65;100.00;57646.63;10421954;28;20037;-78
2023/09/21 00:34:57;;;;;;;3.13;1.65;;;;;;;-147.65;100.00;57646.63;10455532;28;20048;-78
2023/09/21 00:39:58;;;;;;;7.32;3.88;;;;;;;-147.65;100.00;57646.63;10458404;28;20033;-78
2023/09/21 00:44:58;;;;;;;5.72;2.22;;;;;;;-147.65;100.00;57646.63;10425513;28;20038;-79
2023/09/21 00:50:00;;;;;;;4.07;1.83;;;;;;;-147.65;100.00;57646.63;10467610;28;20036;-79
2023/09/21 00:55:00;;;;;;;7.37;2.97;;;;;;;-147.65;100.00;57646.63;10442648;28;20094;-79
2023/09/21 01:00:04;;;;;;;3.30;1.67;;;;;;;-147.65;100.00;57646.63;10444291;28;20067;-78
2023/09/21 01:05:08;;;;;;;4.70;2.40;;;;;;;-147.65;100.00;57646.63;10444480;28;20037;-79
2023/09/21 01:10:13;;;;;;;4.68;2.17;;;;;;;-147.65;100.00;57646.63;10446297;28;20087;-78
2023/09/21 01:15:13;;;;;;;3.65;1.20;;;;;;;-147.65;100.00;57646.63;10446143;28;20045;-79
2023/09/21 01:20:22;;;;;;;2.10;1.35;;;;;;;-147.65;100.00;57646.63;10445034;28;20037;-79
2023/09/21 01:25:23;;;;;;;3.40;1.50;;;;;;;-147.65;100.00;57646.63;10419573;28;20048;-78
2023/09/21 01:30:28;;;;;;;4.53;1.73;;;;;;;-147.65;100.00;57646.63;10404294;28;20428;-79
2023/09/21 01:35:28;;;;;;;4.97;1.95;;;;;;;-147.65;100.00;57646.63;10455442;28;20052;-79
2023/09/21 01:40:29;;;;;;;3.50;1.83;;;;;;;-147.65;100.00;57646.63;10443470;28;20037;-78
2023/09/21 01:45:29;;;;;;;4.35;2.20;;;;;;;-147.65;100.00;57646.63;10403581;28;20588;-79
2023/09/21 01:50:31;;;;;;;2.97;1.75;;;;;;;-147.65;100.00;57646.63;10460496;28;20037;-79
2023/09/21 01:55:32;;;;;;;6.20;2.00;;;;;;;-147.65;100.00;57646.63;10418612;28;20386;-80
2023/09/21 02:00:35;;;;;;;4.53;2.08;;;;;;;-147.65;100.00;57646.63;10434712;28;20044;-79
2023/09/21 02:05:36;;;;;;;4.65;1.90;;;;;;;-147.65;100.00;57646.63;10423873;28;20127;-79
2023/09/21 02:10:38;;;;;;;7.53;2.10;;;;;;;-147.65;100.00;57646.63;10440759;28;20041;-79
2023/09/21 02:15:38;;;;;;;;;;;;;;;-147.65;100.00;57646.63;10473821;28;20041;-79
2023/09/21 02:20:41;;;;;;;3.33;1.60;;;;;;;-147.65;100.00;57646.63;10438689;28;19921;-79
2023/09/21 02:25:43;;;;;;;6.35;1.83;;;;;;;-147.65;100.00;57646.63;10491446;28;20037;-78
2023/09/21 02:30:47;;;;;;;6.63;2.47;;;;;;;-147.65;100.00;57646.63;10447159;28;20465;-78
2023/09/21 02:35:48;;;;;;;3.72;1.90;;;;;;;-147.65;100.00;57646.63;10440560;28;20516;-78
2023/09/21 02:40:48;;;;;;;2.90;1.70;;;;;;;-147.65;100.00;57646.63;10444904;28;20080;-78
2023/09/21 02:45:49;;;;;;;14.35;2.05;;;;;;;-147.65;100.00;57646.63;10481981;28;20051;-78
2023/09/21 02:50:50;;;;;;;4.95;1.80;;;;;;;-147.65;100.00;57646.63;10459587;28;20043;-78
2023/09/21 02:55:50;;;;;;;4.07;2.13;;;;;;;-147.65;100.00;57646.63;10439519;28;20041;-79
2023/09/21 03:00:51;;;;;;;3.95;2.13;;;;;;;-147.65;100.00;57646.63;10473727;28;20047;-77
2023/09/21 03:05:52;;;;;;;3.30;1.58;;;;;;;-147.65;100.00;57646.63;10431752;28;20127;-77
2023/09/21 03:10:53;;;;;;;4.28;1.60;;;;;;;-147.65;100.00;57646.63;10484385;28;20516;-78
2023/09/21 03:15:58;;;;;;;4.75;1.95;;;;;;;-147.65;100.00;57646.63;10425635;28;20037;-78
2023/09/21 03:20:59;;;;;;;3.65;2.05;;;;;;;-147.65;100.00;57646.63;10478604;28;20516;-78
2023/09/21 03:25:59;;;;;;;4.65;2.20;;;;;;;-147.65;100.00;57646.63;10460852;28;20041;-79
2023/09/21 03:31:00;;;;;;;6.50;2.05;;;;;;;-147.65;100.00;57646.63;10441912;28;20485;-77
2023/09/21 03:36:01;;;;;;;4.07;2.47;;;;;;;-147.65;100.00;57646.63;10446944;28;20037;-77
2023/09/21 03:41:01;;;;;;;8.27;1.60;;;;;;;-147.65;100.00;57646.63;10479504;28;20094;-78
2023/09/21 03:46:02;;;;;;;3.70;2.35;;;;;;;-147.65;100.00;57646.63;10429192;28;20041;-78
2023/09/21 03:51:02;;;;;;;6.82;1.85;;;;;;;-147.65;100.00;57646.63;10450141;28;20048;-78
2023/09/21 03:56:03;;;;;;;2.95;2.08;;;;;;;-147.65;100.00;57646.63;10465479;28;20363;-77
2023/09/21 04:01:04;;;;;;;8.45;2.42;;;;;;;-147.65;100.00;57646.63;10483074;28;20067;-78
2023/09/21 04:06:06;;;;;;;5.45;2.45;;;;;;;-147.65;100.00;57646.63;10464923;28;20143;-76
2023/09/21 04:11:07;;;;;;;4.70;1.95;;;;;;;-147.65;100.00;57646.63;10423383;28;20040;-78
2023/09/21 04:16:08;;;;;;;3.10;1.80;;;;;;;-147.65;100.00;57646.63;10425371;28;20426;-83
2023/09/21 04:21:09;;;;;;;7.97;2.03;;;;;;;-147.65;100.00;57646.63;10445323;28;20102;-80
2023/09/21 04:26:10;;;;;;;4.90;1.98;;;;;;;-147.65;100.00;57646.63;10445436;28;20366;-79
2023/09/21 04:31:12;;;;;;;4.32;2.10;;;;;;;-147.65;100.00;57646.63;10451542;28;20049;-78
2023/09/21 04:36:13;;;;;;;;;;;;;;;-147.65;100.00;57646.63;10461486;28;20182;-80
2023/09/21 04:41:15;;;;;;;5.30;2.40;;;;;;;-147.65;100.00;57646.63;10436780;28;20391;-80
2023/09/21 04:46:17;;;;;;;4.70;2.75;;;;;;;-147.65;100.00;57646.63;10466875;28;20037;-79
2023/09/21 04:51:17;;;;;;;3.78;2.63;;;;;;;-147.65;100.00;57646.63;10422502;28;20048;-77
2023/09/21 04:56:18;;;;;;;4.40;1.90;;;;;;;-147.65;100.00;57646.63;10453410;28;20039;-77
2023/09/21 05:01:20;;;;;;;7.05;2.03;;;;;;;-147.65;100.00;57646.63;10468497;28;20047;-77
2023/09/21 05:06:21;;;;;;;5.35;1.92;;;;;;;-147.65;100.00;57646.63;10451356;28;20178;-79
2023/09/21 05:11:22;;;;;;;4.90;1.80;;;;;;;-147.65;100.00;57646.63;10428592;28;20383;-79
2023/09/21 05:16:22;;;;;;;6.25;2.28;;;;;;;-147.65;100.00;57646.63;10463280;28;20043;-78
2023/09/21 05:21:23;;;;;;;6.18;2.40;;;;;;;-147.65;100.00;57646.63;10444544;28;20493;-79
2023/09/21 05:26:23;;;;;;;6.57;2.08;;;;;;;-147.65;100.00;57646.63;10418653;28;20057;-79
2023/09/21 05:31:24;;;;;;;4.97;2.63;;;;;;;-147.65;100.00;57646.63;10431172;28;20048;-79
2023/09/21 05:36:24;;;;;;;5.18;2.28;;;;;;;-147.65;100.00;57646.63;10443952;28;20112;-79
2023/09/21 05:41:25;;;;;;;3.53;2.33;;;;;;;-147.65;100.00;57646.63;10439656;28;20179;-80
2023/09/21 05:46:25;;;;;;;8.98;2.10;;;;;;;-147.65;100.00;57646.63;10443722;28;20452;-79
2023/09/21 05:51:26;;;;;;;7.65;2.65;;;;;;;-147.65;100.00;57646.63;10471697;28;20051;-79
2023/09/21 05:56:27;;;;;;;6.47;3.72;;;;;;;-147.65;100.00;57646.63;10444269;28;20044;-79
2023/09/21 06:01:31;;;;;;;4.95;2.10;;;;;;;-147.65;100.00;57646.63;10437757;28;20037;-79
2023/09/21 06:06:33;;;;;;;6.50;2.70;;;;;;;-147.65;100.00;57646.63;10408571;28;20044;-79
2023/09/21 06:11:34;;;;;;;7.50;2.53;;;;;;;-147.65;100.00;57646.63;10422430;28;20094;-80
2023/09/21 06:16:34;;;;;;;10.50;2.45;;;;;;;-147.65;100.00;57646.63;10466175;28;20123;-79
2023/09/21 06:21:35;;;;;;;6.60;1.98;;;;;;;-147.65;100.00;57646.63;10455933;28;20078;-80
2023/09/21 06:26:36;;;;;;;7.78;2.38;;;;;;;-147.65;100.00;57646.63;10454636;28;20037;-80
2023/09/21 06:31:36;;;;;;;9.68;2.35;;;;;;;-147.65;100.00;57646.63;10414321;28;20136;-79
2023/09/21 06:36:37;;;;;;;5.75;3.13;;;;;;;-147.65;100.00;57646.63;10437168;28;20148;-78
2023/09/21 06:41:39;;;;;;;4.85;2.33;;;;;;;-147.65;100.00;57646.63;10439834;28;20041;-78
2023/09/21 06:46:40;;;;;;;4.88;2.65;;;;;;;-147.65;100.00;57646.63;10443337;28;20043;-78
2023/09/21 06:51:41;;;;;;;20.95;4.35;;;;;;;-147.65;100.00;57646.63;10429540;28;20374;-77
2023/09/21 06:56:41;;;;;;;5.43;2.22;;;;;;;-147.65;100.00;57646.63;10438371;28;20037;-79
2023/09/21 07:01:42;;;;;;;8.52;2.40;;;;;;;-147.65;100.00;57646.63;10425586;28;20041;-78
2023/09/21 07:06:43;;;;;;;4.45;2.67;;;;;;;-147.65;100.00;57646.63;10418727;28;20047;-79
2023/09/21 07:11:44;;;;;;;6.18;2.30;;;;;;;-147.65;100.00;57646.63;10412223;28;20162;-79
2023/09/21 07:16:46;;;;;;;6.57;2.63;;;;;;;-147.65;100.00;57646.63;10427224;28;20493;-79
2023/09/21 07:21:51;;;;;;;6.25;3.00;;;;;;;-147.65;100.00;57646.63;10431063;28;20683;-80
2023/09/21 07:26:53;;;;;;;6.50;3.10;;;;;;;-147.65;100.00;57646.63;10429550;28;20363;-77
2023/09/21 07:31:54;;;;;;;;;;;;;;;-147.65;100.00;57646.63;10433294;28;20456;-79
2023/09/21 07:36:56;;;;;;;12.70;3.28;;;;;;;-147.65;100.00;57646.63;10425902;28;19931;-79
2023/09/21 07:41:56;;;;;;;9.52;3.28;;;;;;;-147.65;100.00;57646.63;10428936;28;20475;-78
2023/09/21 07:46:59;;;;;;;4.35;2.30;;;;;;;-147.65;100.00;57646.63;10428378;28;20037;-80
2023/09/21 07:51:59;;;;;;;5.28;2.78;;;;;;;-147.65;100.00;57646.63;10452476;28;20067;-79
2023/09/21 07:57:00;;;;;;;5.22;2.47;;;;;;;-147.65;100.00;57646.63;10433615;28;20147;-79
2023/09/21 08:02:00;;;;;;;4.97;2.88;;;;;;;-147.65;100.00;57646.63;10439690;28;20033;-79
2023/09/21 08:07:01;;;;;;;7.40;2.47;;;;;;;-147.65;100.00;57646.63;10425516;28;20061;-79
2023/09/21 08:12:02;;;;;;;7.75;3.13;;;;;;;-147.65;100.00;57646.63;10449906;28;20041;-80
2023/09/21 08:17:02;;;;;;;11.90;5.07;;;;;;;-147.65;100.00;57646.63;10414976;28;20075;-81
2023/09/21 08:22:03;;;;;;;5.38;2.30;;;;;;;-147.65;100.00;57646.63;10413888;28;20120;-79
2023/09/21 08:27:04;;;;;;;3.35;2.20;;;;;;;-147.65;100.00;57646.63;10408141;28;20033;-80
2023/09/21 08:32:04;;;;;;;6.90;3.42;;;;;;;-147.65;100.00;57646.63;10470264;28;20420;-80
2023/09/21 08:37:05;;;;;;;11.65;3.25;;;;;;;-147.65;100.00;57646.63;10483553;28;20155;-80
2023/09/21 08:42:05;;;;;;;6.70;2.75;;;;;;;-147.65;100.00;57646.63;10463288;28;20496;-80
2023/09/21 08:47:09;;;;;;;6.03;2.55;;;;;;;-147.65;100.00;57646.63;10458872;28;20037;-80
2023/09/21 08:52:10;;;;;;;6.68;3.55;;;;;;;-147.65;100.00;57646.63;10450960;28;20033;-77
2023/09/21 08:57:11;;;;;;;7.70;2.78;;;;;;;-147.65;100.00;57646.63;10418600;28;20045;-78
2023/09/21 09:02:12;;;;;;;3.90;2.88;;;;;;;-147.65;100.00;57646.63;10424689;28;20071;-77
2023/09/21 09:07:13;;;;;;;4.95;2.60;;;;;;;-147.65;100.00;57646.63;10437348;28;20436;-78
2023/09/21 09:12:21;;;;;;;8.38;2.53;;;;;;;-147.65;100.00;57646.63;10456053;28;20173;-77
2023/09/21 09:17:21;;;;;;;5.97;2.13;;;;;;;-147.65;100.00;57646.63;10433873;28;20416;-79
2023/09/21 09:22:22;;;;;;;4.78;1.42;;;;;;;-147.65;100.00;57646.63;10434427;28;20131;-75
2023/09/21 09:27:24;;;;;;;4.53;1.80;;;;;;;-147.65;100.00;57646.63;10456521;28;20421;-76
2023/09/21 09:32:30;;;;;;;;;;;;;;;-147.65;100.00;57646.63;10445472;28;20190;-78
2023/09/21 09:37:34;;;;;;;2.95;1.42;;;;;;;-147.65;100.00;57646.63;10430435;28;19924;-78
2023/09/21 09:42:34;;;;;;;7.97;2.15;;;;;;;-147.65;100.00;57646.63;10442418;28;20103;-77
2023/09/21 09:47:35;;;;;;;5.05;2.05;;;;;;;-147.65;100.00;57646.63;10452818;28;20162;-79
2023/09/21 09:52:40;;;;;;;3.37;2.00;;;;;;;-147.65;100.00;57646.63;10444231;28;20151;-79
2023/09/21 09:57:41;;;;;;;3.72;1.30;;;;;;;-147.65;100.00;57646.63;10454769;28;20493;-78
2023/09/21 10:02:43;;;;;;;2.55;1.40;;;;;;;-147.65;100.00;57646.63;10457828;28;20041;-78
2023/09/21 10:07:46;;;;;;;;;;;;;;;-147.65;100.00;57646.63;10469710;28;20114;-80
2023/09/21 10:12:51;;;;;;;3.72;2.30;;;;;;;-147.65;100.00;57646.63;10448164;28;19921;-79
2023/09/21 10:17:54;;;;;;;6.65;2.15;;;;;;;-147.65;100.00;57646.63;10411970;28;20037;-79
2023/09/21 10:22:55;;;;;;;3.75;1.92;;;;;;;-147.65;100.00;57646.63;10431833;28;20052;-80
2023/09/21 10:27:57;;;;;;;10.50;2.75;;;;;;;-147.65;100.00;57646.63;10434691;28;20039;-80
2023/09/21 10:32:57;;;;;;;10.38;3.15;;;;;;;-147.65;100.00;57646.63;10426034;28;20065;-79
2023/09/21 10:38:14;;;;;;;4.68;1.55;;;;;;;-147.65;100.00;57646.63;10439177;28;20548;-79
2023/09/21 10:43:36;;;;;;;4.00;1.58;;;;;;;-147.65;100.00;57646.63;10483762;28;20067;-77
2023/09/21 10:48:37;;;;;;;;;;;;;;;-147.65;100.00;57646.63;10459187;28;20043;-77
2023/09/21 10:53:37;;;;;;;3.15;1.30;;;;;;;-147.65;100.00;57646.63;10418756;28;19931;-78
2023/09/21 10:58:38;;;;;;;4.07;1.50;;;;;;;-147.65;100.00;57646.63;10472548;28;20123;-80
2023/09/21 11:03:38;;;;;;;4.63;2.10;;;;;;;-147.65;100.00;57646.63;10488711;28;20512;-77
2023/09/21 11:08:40;;;;;;;3.27;1.97;;;;;;;-147.65;100.00;57646.63;10461422;28;20041;-77
2023/09/21 11:13:41;;;;;;;4.53;2.72;;;;;;;-147.65;100.00;57646.63;10463178;28;20126;-77
2023/09/21 11:18:42;;;;;;;4.82;2.47;;;;;;;-147.65;100.00;57646.63;10456519;28;20110;-78
2023/09/21 11:23:43;;;;;;;3.53;1.67;;;;;;;-147.65;100.00;57646.63;10504573;28;20109;-78
2023/09/21 11:28:43;;;;;;;3.97;1.90;;;;;;;-147.65;100.00;57646.63;10466679;28;20037;-78
2023/09/21 11:33:44;;;;;;;5.00;1.70;;;;;;;-147.65;100.00;57646.63;10478490;28;20124;-78
2023/09/21 11:38:44;;;;;;;8.40;2.87;;;;;;;-147.65;100.00;57646.63;10501683;28;20062;-78
2023/09/21 11:43:45;;;;;;;3.90;1.90;;;;;;;-147.65;100.00;57646.63;10415891;28;20106;-78
2023/09/21 11:48:48;;;;;;;3.40;1.47;;;;;;;-147.65;100.00;57646.63;10450010;28;20043;-78
2023/09/21 11:53:49;;;;;;;2.45;1.50;;;;;;;-147.65;100.00;57646.63;10443539;28;20033;-78
2023/09/21 11:58:50;;;;;;;7.82;2.60;;;;;;;-147.65;100.00;57646.63;10433828;28;20036;-78
2023/09/21 12:03:53;;;;;;;10.23;4.90;;;;;;;-147.65;100.00;57646.63;10458192;28;20061;-78
2023/09/21 12:08:54;;;;;;;5.20;2.92;;;;;;;-147.65;100.00;57646.63;10451086;28;20055;-80
2023/09/21 12:13:55;;;;;;;7.68;3.35;;;;;;;-147.65;100.00;57646.63;10424426;28;20127;-80
2023/09/21 12:18:58;;;;;;;5.88;2.40;;;;;;;-147.65;100.00;57646.63;10431257;28;20113;-81
2023/09/21 12:23:59;;;;;;;3.65;2.25;;;;;;;-147.65;100.00;57646.63;10442780;28;21502;-79
2023/09/21 12:29:01;;;;;;;6.17;3.17;;;;;;;-147.65;100.00;57646.63;10456211;28;20088;-81
2023/09/21 12:34:02;;;;;;;8.48;2.40;;;;;;;-147.65;100.00;57646.63;10424035;28;20520;-81
2023/09/21 12:39:08;;;;;;;4.22;1.90;;;;;;;-147.65;100.00;57646.63;10469714;28;20146;-79
2023/09/21 12:44:10;;;;;;;6.72;2.47;;;;;;;-147.65;100.00;57646.63;10448289;28;20076;-79
2023/09/21 12:49:11;;;;;;;5.18;2.67;;;;;;;-147.65;100.00;57646.63;10433827;28;20072;-79
2023/09/21 12:54:11;;;;;;;3.63;2.13;;;;;;;-147.65;100.00;57646.63;10407427;28;20053;-76
2023/09/21 12:59:12;;;;;;;3.35;2.10;;;;;;;-147.65;100.00;57646.63;10401510;28;20050;-77
2023/09/21 13:04:12;;;;;;;11.23;3.28;;;;;;;-147.65;100.00;57646.63;10436384;28;20189;-77
2023/09/21 13:09:13;;;;;;;5.65;2.47;;;;;;;-147.65;100.00;57646.63;10447882;28;20128;-78
2023/09/21 13:14:13;;;;;;;4.70;2.42;;;;;;;-147.65;100.00;57646.63;10474309;28;20136;-77
2023/09/21 13:19:14;;;;;;;6.05;3.22;;;;;;;-147.65;100.00;57646.63;10442759;28;20037;-80
2023/09/21 13:24:15;;;;;;;4.28;2.15;;;;;;;-147.65;100.00;57646.63;10463209;28;20037;-78
2023/09/21 13:29:17;;;;;;;6.28;3.17;;;;;;;-147.65;100.00;57646.63;10457751;28;20051;-78
2023/09/21 13:34:21;;;;;;;7.37;5.07;;;;;;;-147.65;100.00;57646.63;10452001;28;20568;-79
2023/09/21 13:39:22;;;;;;;5.80;3.25;;;;;;;-147.65;100.00;57646.63;10458715;28;20043;-77
2023/09/21 13:44:23;;;;;;;6.75;2.97;;;;;;;-147.65;100.00;57646.63;10454502;28;20033;-77
2023/09/21 13:49:27;;;;;;;6.07;3.08;;;;;;;-147.65;100.00;57646.63;10461890;28;20471;-78
2023/09/21 13:54:29;;;;;;;5.13;2.33;;;;;;;-147.65;100.00;57646.63;10431501;28;20635;-79
2023/09/21 13:59:29;;;;;;;;;;;;;;;-147.65;100.00;57646.63;10410898;28;20120;-83
2023/09/21 14:04:29;;;;;;;6.03;4.33;;;;;;;-147.65;100.00;57646.63;10412089;28;19924;-82
2023/09/21 14:09:30;;;;;;;7.07;3.70;;;;;;;-147.65;100.00;57646.63;10449933;28;20303;-78
2023/09/21 14:14:31;;;;;;;6.72;4.03;;;;;;;-147.65;100.00;57646.63;10440444;28;20041;-78
2023/09/21 14:19:31;;;;;;;6.05;4.03;;;;;;;-147.65;100.00;57646.63;10470419;28;20041;-79
2023/09/21 14:24:32;;;;;;;9.57;4.25;;;;;;;-147.65;100.00;57646.63;10434843;28;20036;-77
2023/09/21 14:29:32;;;;;;;6.72;4.05;;;;;;;-147.65;100.00;57646.63;10436036;28;20036;-78
2023/09/21 14:34:33;;;;;;;18.77;6.28;;;;;;;-147.65;100.00;57646.63;10422127;28;20099;-78
2023/09/21 14:39:34;;;;;;;10.63;5.72;;;;;;;-147.65;100.00;57646.63;10435988;28;20079;-77
2023/09/21 14:44:35;;;;;;;10.52;4.30;;;;;;;-147.65;100.00;57646.63;10437425;28;20045;-79
2023/09/21 14:49:35;;;;;;;10.82;5.15;;;;;;;-147.65;100.00;57646.63;10452422;28;20125;-78
2023/09/21 14:54:36;;;;;;;8.48;4.40;;;;;;;-147.65;100.00;57646.63;10445098;28;20083;-77
2023/09/21 14:59:36;;;;;;;8.80;4.90;;;;;;;-147.65;100.00;57646.63;10437155;28;20394;-78
2023/09/21 15:04:39;;;;;;;10.43;5.07;;;;;;;-147.65;100.00;57646.63;10464452;28;20045;-78
2023/09/21 15:09:40;;;;;;;5.90;3.25;;;;;;;-147.65;100.00;57646.63;10451920;28;20044;-77
2023/09/21 15:14:41;;;;;;;8.77;4.18;;;;;;;-147.65;100.00;57646.63;10470728;28;20117;-79
2023/09/21 15:19:41;;;;;;;4.80;3.33;;;;;;;-147.65;100.00;57646.63;10443086;28;20226;-76
2023/09/21 15:24:43;;;;;;;9.35;4.20;;;;;;;-147.65;100.00;57646.63;10457778;28;20840;-78
2023/09/21 15:29:47;;;;;;;12.47;4.10;;;;;;;-147.65;100.00;57646.63;10462781;28;20072;-77
2023/09/21 15:34:47;;;;;;;5.75;3.38;;;;;;;-147.65;100.00;57646.63;10458152;28;20033;-78
2023/09/21 15:39:48;;;;;;;5.93;3.90;;;;;;;-147.65;100.00;57646.63;10467857;28;20434;-78
2023/09/21 15:44:48;;;;;;;7.30;4.82;;;;;;;-147.65;100.00;57646.63;10420170;28;20140;-77
2023/09/21 15:49:50;;;;;;;7.43;4.85;;;;;;;-147.65;100.00;57646.63;10444521;28;20090;-78
2023/09/21 15:54:51;;;;;;;10.10;4.30;;;;;;;-147.65;100.00;57646.63;10480583;28;20040;-78
2023/09/21 15:59:51;;;;;;;7.38;4.75;;;;;;;-147.65;100.00;57646.63;10446840;28;20047;-78
2023/09/21 16:04:52;;;;;;;7.00;3.88;;;;;;;-147.65;100.00;57646.63;10450105;28;20730;-81
2023/09/21 16:09:53;;;;;;;5.13;3.47;;;;;;;-147.65;100.00;57646.63;10469661;28;20052;-77
2023/09/21 16:14:53;;;;;;;5.68;3.38;;;;;;;-147.65;100.00;57646.63;10476925;28;20037;-77
2023/09/21 16:19:54;;;;;;;4.45;1.50;;;;;;;-147.65;100.00;57646.63;10483845;28;20060;-77
2023/09/21 16:24:55;;;;;;;3.97;1.25;;;;;;;-147.65;100.00;57646.63;10433027;28;20049;-76
2023/09/21 16:29:55;;;;;;;6.53;1.33;;;;;;;-147.65;100.00;57646.63;10458916;28;20120;-76
2023/09/21 16:34:56;;;;;;;5.40;1.20;;;;;;;-147.65;100.00;57646.63;10464092;28;20052;-76
2023/09/21 16:39:57;;;;;;;1.50;0.80;;;;;;;-147.65;100.00;57646.63;10434808;28;20143;-76
2023/09/21 16:44:57;;;;;;;3.08;1.15;;;;;;;-147.65;100.00;57646.63;10449884;28;20120;-77
2023/09/21 16:49:58;;;;;;;1.70;0.65;;;;;;;-147.65;100.00;57646.63;10459199;28;20047;-77
2023/09/21 16:54:59;;;;;;;2.75;1.02;;;;;;;-147.65;100.00;57646.63;10443202;28;20538;-77
2023/09/21 16:59:59;;;;;;;2.25;0.80;;;;;;;-147.65;100.00;57646.63;10428026;28;20037;-77
2023/09/21 17:05:00;;;;;;;1.95;1.02;;;;;;;-147.65;100.00;57646.63;10432774;28;20021;-77
2023/09/21 17:10:01;;;;;;;1.65;0.63;;;;;;;-147.65;100.00;57646.63;10427889;28;20045;-77
2023/09/21 17:15:02;;;;;;;3.95;1.00;;;;;;;-147.65;100.00;57646.63;10458119;28;20048;-76
2023/09/21 17:20:03;;;;;;;3.35;2.88;;;;;;;-147.65;100.00;57646.63;10465178;28;20040;-77
2023/09/21 17:25:05;;;;;;;2.63;0.60;;;;;;;-147.65;100.00;57646.63;10455959;28;20063;-76
2023/09/21 17:30:07;;;;;;;2.55;0.95;;;;;;;-147.65;100.00;57646.63;10461931;28;20116;-75
2023/09/21 17:35:07;;;;;;;3.90;0.68;;;;;;;-147.65;100.00;57646.63;10464628;28;20391;-75
2023/09/21 17:40:12;;;;;;;3.45;1.00;;;;;;;-147.65;100.00;57646.63;10444135;28;20052;-75
2023/09/21 17:45:13;;;;;;;2.42;0.90;;;;;;;-147.65;100.00;57646.63;10459171;28;20070;-75
2023/09/21 17:50:13;;;;;;;2.92;1.42;;;;;;;-147.65;100.00;57646.63;10445308;28;20125;-76
2023/09/21 17:55:14;;;;;;;7.65;1.27;;;;;;;-147.65;100.00;57646.63;10451952;28;20508;-76
2023/09/21 18:00:15;;;;;;;4.07;1.23;;;;;;;-147.65;100.00;57646.63;10456561;28;20095;-76
2023/09/21 18:05:15;;;;;;;2.88;1.30;;;;;;;-147.65;100.00;57646.63;10457488;28;20071;-76
2023/09/21 18:10:18;;;;;;;3.05;1.48;;;;;;;-147.65;100.00;57646.63;10457594;28;20061;-76
2023/09/21 18:15:19;;;;;;;7.40;2.70;;;;;;;-147.65;100.00;57646.63;10464357;28;20044;-76
2023/09/21 18:20:21;;;;;;;6.30;2.63;;;;;;;-147.65;100.00;57646.63;10449071;28;20052;-77
2023/09/21 18:25:22;;;;;;;6.40;1.65;;;;;;;-147.65;100.00;57646.63;10462509;28;20049;-77
2023/09/21 18:30:23;;;;;;;4.65;1.92;;;;;;;-147.65;100.00;57646.63;10465759;28;20040;-77
2023/09/21 18:35:24;;;;;;;5.97;1.90;;;;;;;-147.65;100.00;57646.63;10418472;28;20128;-77
2023/09/21 18:40:24;;;;;;;5.70;2.00;;;;;;;-147.65;100.00;57646.63;10420142;28;20489;-76
2023/09/21 18:45:25;;;;;;;6.43;2.78;;;;;;;-147.65;100.00;57646.63;10454176;28;20124;-77
2023/09/21 18:50:26;;;;;;;8.90;2.05;;;;;;;-147.65;100.00;57646.63;10452257;28;20037;-77
2023/09/21 18:55:26;;;;;;;9.52;2.60;;;;;;;-147.65;100.00;57646.63;10461232;28;20053;-77
2023/09/21 19:00:28;;;;;;;5.38;2.65;;;;;;;-147.65;100.00;57646.63;10472656;28;20045;-77
2023/09/21 19:05:29;;;;;;;5.60;2.38;;;;;;;-147.65;100.00;57646.63;10469544;28;20496;-77
2023/09/21 19:10:29;;;;;;;7.35;2.25;;;;;;;-147.65;100.00;57646.63;10402393;28;20037;-77
2023/09/21 19:15:30;;;;;;;6.00;2.58;;;;;;;-147.65;100.00;57646.63;10446521;28;20132;-77
2023/09/21 19:20:30;;;;;;;7.90;3.40;;;;;;;-147.65;100.00;57646.63;10451270;28;20522;-78
2023/09/21 19:25:34;;;;;;;5.72;2.25;;;;;;;-147.65;100.00;57646.63;10438642;28;20132;-77
2023/09/21 19:30:35;;;;;;;4.68;1.55;;;;;;;-147.65;100.00;57646.63;10452715;28;20091;-77
2023/09/21 19:35:35;;;;;;;4.78;3.15;;;;;;;-147.65;100.00;57646.63;10475476;28;20087;-77
2023/09/21 19:40:42;;;;;;;3.25;1.65;;;;;;;-147.65;100.00;57646.63;10476930;28;20067;-77
2023/09/21 19:45:42;;;;;;;4.50;1.80;;;;;;;-147.65;100.00;57646.63;10426556;28;20044;-77
2023/09/21 19:50:43;;;;;;;7.80;2.80;;;;;;;-147.65;100.00;57646.63;10453083;28;20072;-78
2023/09/21 19:55:44;;;;;;;6.22;2.60;;;;;;;-147.65;100.00;57646.63;10435435;28;20179;-77
2023/09/21 20:00:44;;;;;;;4.05;1.63;;;;;;;-147.65;100.00;57646.63;10464624;28;20099;-77
2023/09/21 20:05:46;;;;;;;4.90;1.77;;;;;;;-147.65;100.00;57646.63;10443971;28;20174;-78
2023/09/21 20:10:47;;;;;;;6.32;1.88;;;;;;;-147.65;100.00;57646.63;10467538;28;20045;-77
2023/09/21 20:15:47;;;;;;;4.22;1.80;;;;;;;-147.65;100.00;57646.63;10444826;28;20460;-82
2023/09/21 20:20:48;;;;;;;5.07;3.10;;;;;;;-147.65;100.00;57646.63;10454965;28;20052;-77
2023/09/21 20:25:48;;;;;;;5.35;2.08;;;;;;;-147.65;100.00;57646.63;10447420;28;20524;-76
2023/09/21 20:30:49;;;;;;;5.45;2.05;;;;;;;-147.65;100.00;57646.63;10455126;28;20037;-77
2023/09/21 20:35:49;;;;;;;2.97;1.40;;;;;;;-147.65;100.00;57646.63;10461994;28;20059;-77
2023/09/21 20:40:51;;;;;;;6.63;1.90;;;;;;;-147.65;100.00;57646.63;10466464;28;20032;-77
2023/09/21 20:45:51;;;;;;;7.75;2.22;;;;;;;-147.65;100.00;57646.63;10454288;28;20049;-76
2023/09/21 20:50:52;;;;;;;3.75;1.40;;;;;;;-147.65;100.00;57646.63;10461047;28;20376;-76
2023/09/21 20:55:52;;;;;;;3.40;1.85;;;;;;;-147.65;100.00;57646.63;10434366;28;20048;-77
2023/09/21 21:00:53;;;;;;;2.50;1.48;;;;;;;-147.65;100.00;57646.63;10446327;28;20051;-77
2023/09/21 21:05:54;;;;;;;3.45;1.50;;;;;;;-147.65;100.00;57646.63;10448188;28;20031;-77
2023/09/21 21:10:54;;;;;;;5.47;1.27;;;;;;;-147.65;100.00;57646.63;10467616;28;20048;-77
2023/09/21 21:15:55;;;;;;;3.33;1.67;;;;;;;-147.65;100.00;57646.63;10439747;28;20485;-77
2023/09/21 21:20:55;;;;;;;6.43;1.52;;;;;;;-147.65;100.00;57646.63;10456042;28;20155;-78
2023/09/21 21:25:56;;;;;;;7.25;2.17;;;;;;;-147.65;100.00;57646.63;10464871;28;20037;-78
2023/09/21 21:30:56;;;;;;;4.53;1.88;;;;;;;-147.65;100.00;57646.63;10465411;28;20056;-78
2023/09/21 21:35:57;;;;;;;3.40;1.63;;;;;;;-147.65;100.00;57646.63;10447035;28;20179;-79
2023/09/21 21:40:58;;;;;;;4.43;1.58;;;;;;;-147.65;100.00;57646.63;10489910;28;20697;-81
2023/09/21 21:45:59;;;;;;;3.00;1.70;;;;;;;-147.65;100.00;57646.63;10449971;28;20234;-78
2023/09/21 21:51:00;;;;;;;4.82;1.38;;;;;;;-147.65;100.00;57646.63;10411767;28;20110;-78
2023/09/21 21:56:00;;;;;;;3.63;1.42;;;;;;;-147.65;100.00;57646.63;10430429;28;20047;-78
2023/09/21 22:01:01;;;;;;;3.40;1.88;;;;;;;-147.65;100.00;57646.63;10441934;28;20037;-79
2023/09/21 22:06:01;;;;;;;3.85;2.05;;;;;;;-147.65;100.00;57646.63;10472705;28;20037;-78
2023/09/21 22:11:03;;;;;;;3.70;2.00;;;;;;;-147.65;100.00;57646.63;10422107;28;20179;-78
2023/09/21 22:16:08;;;;;;;4.88;2.70;;;;;;;-147.65;100.00;57646.63;10455893;28;20041;-78
2023/09/21 22:21:09;;;;;;;5.40;2.30;;;;;;;-147.65;100.00;57646.63;10443653;28;20045;-78
2023/09/21 22:26:10;;;;;;;5.35;3.65;;;;;;;-147.65;100.00;57646.63;10440076;28;20044;-78
2023/09/21 22:31:15;;;;;;;5.50;3.33;;;;;;;-147.65;100.00;57646.63;10480203;28;20036;-78
2023/09/21 22:36:16;;;;;;;5.68;3.10;;;;;;;-147.65;100.00;57646.63;10450558;28;20054;-78